Time;durP1;ratioP1;P1;durP2;ratioP2;P2;SDS_P1;SDS_P2;PMS_P1;PMS_P2;Temp;Humidity;BMP_temperature;BMP_pressure;BME280_temperature;BME280_humidity;BME280_pressure;Samples;Min_cycle;Max_cycle;Signal;HPM_P1;HPM_P2
2023/03/09 00:00:29;;;;;;;26.38;14.88;;;;;;;;;;5057730;28;20076;-70
2023/03/09 00:02:55;;;;;;;28.77;15.63;;;;;;;;;;5048807;28;20045;-70
2023/03/09 00:05:20;;;;;;;26.67;14.05;;;3.30;99.90;;;;;;5065443;28;20044;-71
2023/03/09 00:07:47;;;;;;;25.70;15.25;;;;;;;;;;5047234;28;20122;-70
2023/03/09 00:10:15;;;;;;;25.90;14.80;;;3.20;99.90;;;;;;5056598;28;20366;-71
2023/03/09 00:12:41;;;;;;;25.38;15.27;;;;;;;;;;5047495;28;20518;-70
2023/03/09 00:15:07;;;;;;;29.02;15.35;;;;;;;;;;5065069;28;20507;-71
2023/03/09 00:17:33;;;;;;;25.23;14.85;;;;;;;;;;5063019;28;20567;-71
2023/03/09 00:20:14;;;;;;;29.40;16.38;;;3.20;99.90;;;;;;5064026;28;20114;-71
2023/03/09 00:22:40;;;;;;;25.92;14.63;;;;;;;;;;5064839;28;20037;-71
2023/03/09 00:25:06;;;;;;;26.80;15.60;;;;;;;;;;5064859;28;20045;-71
2023/03/09 00:27:32;;;;;;;25.60;13.23;;;;;;;;;;5064995;28;20400;-71
2023/03/09 00:29:59;;;;;;;23.58;13.25;;;3.10;99.90;;;;;;5063729;28;20043;-71
2023/03/09 00:32:25;;;;;;;24.88;13.07;;;;;;;;;;5028770;28;20034;-71
2023/03/09 00:34:51;;;;;;;24.67;14.70;;;;;;;;;;5028236;28;20413;-70
2023/03/09 00:37:17;;;;;;;22.77;14.02;;;;;;;;;;5034521;28;20040;-71
2023/03/09 00:39:43;;;;;;;22.83;12.40;;;;;;;;;;5052342;28;20516;-71
2023/03/09 00:42:09;;;;;;;23.40;12.68;;;;;;;;;;5044785;28;20451;-70
2023/03/09 00:44:35;;;;;;;21.63;12.18;;;;;;;;;;5045686;28;20448;-71
2023/03/09 00:47:01;;;;;;;22.33;12.75;;;;;;;;;;5048292;28;20043;-72
2023/03/09 00:49:27;;;;;;;21.63;12.95;;;;;;;;;;5063979;28;20045;-71
2023/03/09 00:51:53;;;;;;;21.63;12.90;;;;;;;;;;5064671;28;20205;-71
2023/03/09 00:54:19;;;;;;;20.67;12.95;;;;;;;;;;5064655;28;20041;-71
2023/03/09 00:56:44;;;;;;;23.10;12.90;;;2.80;99.90;;;;;;5062823;28;20045;-70
2023/03/09 00:59:10;;;;;;;21.95;11.80;;;;;;;;;;5047902;28;20420;-69
2023/03/09 01:01:37;;;;;;;21.15;12.38;;;;;;;;;;5047033;28;20504;-71
2023/03/09 01:04:03;;;;;;;25.70;13.95;;;;;;;;;;5031003;28;20041;-71
2023/03/09 01:06:29;;;;;;;23.20;13.32;;;1.80;99.90;;;;;;5064413;28;20214;-70
2023/03/09 01:08:55;;;;;;;24.85;13.52;;;;;;;;;;5029105;28;20120;-68
2023/03/09 01:11:21;;;;;;;23.98;13.95;;;;;;;;;;5066796;28;20048;-71
2023/03/09 01:13:47;;;;;;;26.77;13.48;;;;;;;;;;5054042;28;20041;-71
2023/03/09 01:16:14;;;;;;;22.10;12.65;;;;;;;;;;5065245;28;20403;-69
2023/03/09 01:18:40;;;;;;;22.60;12.40;;;;;;;;;;5015337;28;20037;-70
2023/03/09 01:21:06;;;;;;;23.88;14.13;;;;;;;;;;5062473;28;20064;-71
2023/03/09 01:23:32;;;;;;;22.45;13.15;;;;;;;;;;5048374;28;20130;-71
2023/03/09 01:25:58;;;;;;;23.67;12.48;;;;;;;;;;5048515;28;20037;-71
2023/03/09 01:28:24;;;;;;;21.27;12.60;;;;;;;;;;5060983;28;20045;-71
2023/03/09 01:30:50;;;;;;;23.38;12.77;;;;;;;;;;5068915;28;20381;-71
2023/03/09 01:33:16;;;;;;;24.48;13.68;;;2.60;99.90;;;;;;5068339;28;20048;-71
2023/03/09 01:35:42;;;;;;;24.83;13.43;;;;;;;;;;5052304;28;20098;-71
2023/03/09 01:38:08;;;;;;;22.38;13.32;;;;;;;;;;5036783;28;20037;-71
2023/03/09 01:40:34;;;;;;;26.52;13.43;;;;;;;;;;5065166;28;20028;-70
2023/03/09 01:43:01;;;;;;;23.90;13.10;;;;;;;;;;5052132;28;20037;-71
2023/03/09 01:45:27;;;;;;;21.02;12.57;;;;;;;;;;5048051;28;20053;-71
2023/03/09 01:47:57;;;;;;;29.13;13.20;;;;;;;;;;5055049;28;20037;-70
2023/03/09 01:50:26;;;;;;;22.67;13.05;;;;;;;;;;5053582;28;20038;-71
2023/03/09 01:52:54;;;;;;;24.63;13.77;;;;;;;;;;5047299;28;20164;-71
2023/03/09 01:55:24;;;;;;;20.55;11.52;;;;;;;;;;5048414;28;20053;-71
2023/03/09 01:58:11;;;;;;;18.88;11.50;;;2.10;99.90;;;;;;5025526;28;20032;-71
2023/03/09 02:00:41;;;;;;;17.63;10.18;;;;;;;;;;5061542;28;20045;-71
2023/03/09 02:03:13;;;;;;;19.98;11.52;;;;;;;;;;5064365;28;20049;-72
2023/03/09 02:06:09;;;;;;;20.83;11.48;;;2.30;99.90;;;;;;5064540;28;20051;-71
2023/03/09 02:08:35;;;;;;;19.20;11.55;;;;;;;;;;5032483;28;20069;-72
2023/03/09 02:11:04;;;;;;;20.00;12.27;;;;;;;;;;5061182;28;20045;-71
2023/03/09 02:13:31;;;;;;;22.85;11.75;;;;;;;;;;5047501;28;20037;-71
2023/03/09 02:15:57;;;;;;;18.10;10.10;;;;;;;;;;5033503;28;20394;-70
2023/03/09 02:18:24;;;;;;;19.98;11.40;;;;;;;;;;5062346;28;20512;-71
2023/03/09 02:20:56;;;;;;;18.38;11.02;;;;;;;;;;5048843;28;20076;-71
2023/03/09 02:23:28;;;;;;;18.30;10.57;;;;;;;;;;5046799;28;20038;-71
2023/03/09 02:26:07;;;;;;;19.70;10.07;;;2.30;99.90;;;;;;5046691;28;20053;-71
2023/03/09 02:28:34;;;;;;;21.70;10.57;;;;;;;;;;5030760;28;20037;-71
2023/03/09 02:31:00;;;;;;;19.52;11.63;;;;;;;;;;5028774;28;20028;-72
2023/03/09 02:33:27;;;;;;;16.88;10.30;;;;;;;;;;5034383;28;20053;-71
2023/03/09 02:35:54;;;;;;;22.60;11.65;;;;;;;;;;5067184;28;20045;-71
2023/03/09 02:38:20;;;;;;;19.92;10.73;;;;;;;;;;5062708;28;20051;-71
2023/03/09 02:40:47;;;;;;;17.88;10.65;;;;;;;;;;5066936;28;20132;-72
2023/03/09 02:43:14;;;;;;;23.40;10.50;;;2.10;99.90;;;;;;5067282;28;20045;-73
2023/03/09 02:45:40;;;;;;;20.73;11.48;;;;;;;;;;5033732;28;20041;-71
2023/03/09 02:48:06;;;;;;;18.50;10.52;;;;;;;;;;5068398;28;20068;-71
2023/03/09 02:50:32;;;;;;;18.52;11.05;;;;;;;;;;5064375;28;20124;-75
2023/03/09 02:53:00;;;;;;;24.02;12.30;;;;;;;;;;5066330;28;20124;-71
2023/03/09 02:55:26;;;;;;;23.05;11.43;;;;;;;;;;5066242;28;20132;-71
2023/03/09 02:57:52;;;;;;;22.52;12.63;;;2.10;99.90;;;;;;5066522;28;20068;-70
2023/03/09 03:00:21;;;;;;;20.23;10.75;;;2.20;99.90;;;;;;5048726;28;20067;-70
2023/03/09 03:02:47;;;;;;;21.67;12.02;;;;;;;;;;5049172;28;20522;-70
2023/03/09 03:05:13;;;;;;;27.13;11.57;;;;;;;;;;5066266;28;20045;-71
2023/03/09 03:07:39;;;;;;;21.55;12.13;;;;;;;;;;5063807;28;20056;-71
2023/03/09 03:10:06;;;;;;;23.35;12.82;;;;;;;;;;5049666;28;20045;-70
2023/03/09 03:12:32;;;;;;;20.05;11.98;;;;;;;;;;5066094;28;20116;-71
2023/03/09 03:14:58;;;;;;;23.27;12.77;;;;;;;;;;5066900;28;20120;-70
2023/03/09 03:17:24;;;;;;;21.90;13.10;;;;;;;;;;5033939;28;20048;-71
2023/03/09 03:19:51;;;;;;;27.85;14.18;;;;;;;;;;5031218;28;20040;-70
2023/03/09 03:22:17;;;;;;;23.40;12.10;;;2.00;99.90;;;;;;5045695;28;20041;-71
2023/03/09 03:24:42;;;;;;;23.52;13.13;;;2.10;99.90;;;;;;5049997;28;20040;-71
2023/03/09 03:27:08;;;;;;;26.15;14.13;;;;;;;;;;5063162;28;20094;-71
2023/03/09 03:29:34;;;;;;;22.05;12.55;;;;;;;;;;5053307;28;20116;-71
2023/03/09 03:32:00;;;;;;;21.23;12.38;;;;;;;;;;5045165;28;20525;-71
2023/03/09 03:34:26;;;;;;;23.35;12.98;;;;;;;;;;5045200;28;20037;-71
2023/03/09 03:36:52;;;;;;;25.20;13.18;;;2.20;99.90;;;;;;5047397;28;20467;-71
2023/03/09 03:39:18;;;;;;;20.88;12.38;;;;;;;;;;5032632;28;20051;-70
2023/03/09 03:41:44;;;;;;;25.08;13.70;;;;;;;;;;5065260;28;20033;-72
2023/03/09 03:44:10;;;;;;;25.38;13.00;;;;;;;;;;5065435;28;20044;-71
2023/03/09 03:46:36;;;;;;;22.33;13.10;;;;;;;;;;5063295;28;20045;-71
2023/03/09 03:49:02;;;;;;;26.50;13.80;;;;;;;;;;5057158;28;20026;-71
2023/03/09 03:51:28;;;;;;;22.38;12.20;;;;;;;;;;5012323;28;20033;-71
2023/03/09 03:53:54;;;;;;;20.42;12.23;;;2.10;99.90;;;;;;5046137;28;20041;-71
2023/03/09 03:56:20;;;;;;;25.17;13.85;;;;;;;;;;5030449;28;20087;-71
2023/03/09 03:58:46;;;;;;;26.70;14.05;;;;;;;;;;5046004;28;20121;-72
2023/03/09 04:01:12;;;;;;;27.02;13.20;;;;;;;;;;5058490;28;20116;-70
2023/03/09 04:03:38;;;;;;;24.25;12.10;;;;;;;;;;5065758;28;20559;-70
2023/03/09 04:06:03;;;;;;;29.35;14.40;;;2.10;99.90;;;;;;5032682;28;20041;-71
2023/03/09 04:08:30;;;;;;;29.45;14.88;;;;;;;;;;5052903;28;20081;-71
2023/03/09 04:10:56;;;;;;;26.58;14.32;;;2.10;99.90;;;;;;5046804;28;20091;-71
2023/03/09 04:13:22;;;;;;;22.90;12.73;;;;;;;;;;5028478;28;20041;-71
2023/03/09 04:15:48;;;;;;;29.50;14.20;;;2.10;99.90;;;;;;5045951;28;20041;-71
2023/03/09 04:18:14;;;;;;;29.60;14.25;;;2.10;99.90;;;;;;5030211;28;20571;-71
2023/03/09 04:20:41;;;;;;;27.08;14.05;;;2.00;99.90;;;;;;5041101;28;20459;-70
2023/03/09 04:23:07;;;;;;;29.17;15.35;;;2.10;99.90;;;;;;5065548;28;20650;-72
2023/03/09 04:25:33;;;;;;;30.40;15.35;;;;;;;;;;5031554;28;20045;-72
2023/03/09 04:27:59;;;;;;;29.38;15.48;;;;;;;;;;5058157;28;20037;-71
2023/03/09 04:30:25;;;;;;;30.83;15.60;;;;;;;;;;5031721;28;20090;-70
2023/03/09 04:32:51;;;;;;;32.22;16.15;;;;;;;;;;5064670;28;20450;-71
2023/03/09 04:35:18;;;;;;;32.08;15.80;;;;;;;;;;5066720;28;20059;-71
2023/03/09 04:37:44;;;;;;;26.90;14.48;;;;;;;;;;5066892;28;20045;-70
2023/03/09 04:40:11;;;;;;;27.13;14.65;;;2.00;99.90;;;;;;5030577;28;20102;-71
2023/03/09 04:42:37;;;;;;;30.90;15.73;;;;;;;;;;5048111;28;20613;-70
2023/03/09 04:45:03;;;;;;;26.63;14.93;;;;;;;;;;5050022;28;20079;-71
2023/03/09 04:47:29;;;;;;;30.40;14.40;;;;;;;;;;5051040;28;20048;-71
2023/03/09 04:49:55;;;;;;;31.80;16.83;;;;;;;;;;5058864;28;20505;-71
2023/03/09 04:52:21;;;;;;;33.80;15.38;;;;;;;;;;5048406;28;20073;-70
2023/03/09 04:54:47;;;;;;;30.27;16.25;;;2.10;99.90;;;;;;5049107;28;20128;-71
2023/03/09 04:57:13;;;;;;;28.60;14.90;;;2.00;99.90;;;;;;5033769;28;20046;-71
2023/03/09 04:59:39;;;;;;;30.50;16.38;;;;;;;;;;5038320;28;20589;-71
2023/03/09 05:02:05;;;;;;;27.48;15.10;;;;;;;;;;5063391;28;20132;-71
2023/03/09 05:04:31;;;;;;;31.75;17.02;;;;;;;;;;5068470;28;20063;-71
2023/03/09 05:06:57;;;;;;;32.13;16.15;;;;;;;;;;5069104;28;20496;-72
2023/03/09 05:09:23;;;;;;;30.38;15.75;;;;;;;;;;5032772;28;20043;-72
2023/03/09 05:11:51;;;;;;;34.55;16.42;;;;;;;;;;5061078;28;20112;-70
2023/03/09 05:14:18;;;;;;;31.42;15.85;;;;;;;;;;5048301;28;20045;-71
2023/03/09 05:16:44;;;;;;;33.58;16.75;;;;;;;;;;5049699;28;20048;-71
2023/03/09 05:19:11;;;;;;;32.65;16.17;;;;;;;;;;5064369;28;20052;-70
2023/03/09 05:21:37;;;;;;;28.75;15.60;;;;;;;;;;5047689;28;20056;-71
2023/03/09 05:24:03;;;;;;;31.88;16.40;;;;;;;;;;5014624;28;20038;-71
2023/03/09 05:26:29;;;;;;;31.38;17.17;;;;;;;;;;5047612;28;20033;-71
2023/03/09 05:28:55;;;;;;;37.40;17.90;;;;;;;;;;5047834;28;20615;-70
2023/03/09 05:31:21;;;;;;;36.50;17.73;;;;;;;;;;5064251;28;20170;-71
2023/03/09 05:33:48;;;;;;;33.55;17.20;;;;;;;;;;5047980;28;20086;-71
2023/03/09 05:36:16;;;;;;;31.23;16.15;;;;;;;;;;5048845;28;20436;-71
2023/03/09 05:38:41;;;;;;;32.28;16.30;;;;;;;;;;5031612;28;20037;-71
2023/03/09 05:41:07;;;;;;;31.83;16.58;;;;;;;;;;5037222;28;20087;-71
2023/03/09 05:43:35;;;;;;;33.83;17.63;;;;;;;;;;5064705;28;20048;-71
2023/03/09 05:46:02;;;;;;;39.70;17.95;;;;;;;;;;5064848;28;20042;-71
2023/03/09 05:48:27;;;;;;;33.47;17.98;;;;;;;;;;5066359;28;20073;-71
2023/03/09 05:50:53;;;;;;;36.97;19.20;;;;;;;;;;5060419;28;20141;-71
2023/03/09 05:53:19;;;;;;;34.88;17.23;;;;;;;;;;5049594;28;20041;-71
2023/03/09 05:55:52;;;;;;;31.23;17.00;;;2.00;99.90;;;;;;5047186;28;20045;-71
2023/03/09 05:58:18;;;;;;;39.42;18.40;;;;;;;;;;5031337;28;20127;-71
2023/03/09 06:00:44;;;;;;;35.35;17.58;;;;;;;;;;5059472;28;20049;-71
2023/03/09 06:03:10;;;;;;;35.90;16.90;;;;;;;;;;5050532;28;20041;-71
2023/03/09 06:05:36;;;;;;;36.30;18.67;;;;;;;;;;5047881;28;20041;-71
2023/03/09 06:08:01;;;;;;;35.58;18.65;;;2.10;99.90;;;;;;5014383;28;20037;-71
2023/03/09 06:10:27;;;;;;;37.92;19.35;;;2.00;99.90;;;;;;5042656;28;20467;-70
2023/03/09 06:12:53;;;;;;;38.05;19.40;;;;;;;;;;5050496;28;20037;-71
2023/03/09 06:15:19;;;;;;;35.55;18.08;;;;;;;;;;5067485;28;20629;-71
2023/03/09 06:17:45;;;;;;;31.35;16.95;;;;;;;;;;5065038;28;20174;-71
2023/03/09 06:20:11;;;;;;;33.67;17.00;;;;;;;;;;5037733;28;20071;-72
2023/03/09 06:22:39;;;;;;;32.42;17.40;;;;;;;;;;5046393;28;20053;-72
2023/03/09 06:25:05;;;;;;;29.73;15.57;;;;;;;;;;5013473;28;20049;-71
2023/03/09 06:27:33;;;;;;;30.38;16.60;;;;;;;;;;5013574;28;20370;-70
2023/03/09 06:29:59;;;;;;;28.13;15.00;;;;;;;;;;5055118;28;20037;-71
2023/03/09 06:32:25;;;;;;;38.05;17.75;;;;;;;;;;5043028;28;20107;-72
2023/03/09 06:34:52;;;;;;;35.22;18.70;;;;;;;;;;5063053;28;20095;-71
2023/03/09 06:37:18;;;;;;;31.10;17.00;;;;;;;;;;5061734;28;20045;-72
2023/03/09 06:39:44;;;;;;;32.35;17.40;;;;;;;;;;5053954;28;20587;-71
2023/03/09 06:42:11;;;;;;;32.83;17.45;;;2.30;99.90;;;;;;5046403;28;20044;-71
2023/03/09 06:44:36;;;;;;;28.45;15.77;;;;;;;;;;5030710;28;20520;-71
2023/03/09 06:47:02;;;;;;;37.53;17.55;;;;;;;;;;5047771;28;20097;-71
2023/03/09 06:49:28;;;;;;;33.88;16.45;;;;;;;;;;5037536;28;20037;-70
2023/03/09 06:51:54;;;;;;;31.85;16.90;;;;;;;;;;5052573;28;20491;-70
2023/03/09 06:54:20;;;;;;;30.33;16.08;;;;;;;;;;5067788;28;20058;-71
2023/03/09 06:56:46;;;;;;;33.70;17.35;;;;;;;;;;5029140;28;20083;-71
2023/03/09 06:59:14;;;;;;;31.73;15.80;;;;;;;;;;5038060;28;20662;-70
2023/03/09 07:01:40;;;;;;;29.95;16.05;;;;;;;;;;5036954;28;20049;-71
2023/03/09 07:04:07;;;;;;;33.45;17.10;;;;;;;;;;5063230;28;20052;-71
2023/03/09 07:06:33;;;;;;;29.35;16.45;;;;;;;;;;5030225;28;20029;-70
2023/03/09 07:08:59;;;;;;;26.63;15.82;;;;;;;;;;5059642;28;20443;-69
2023/03/09 07:11:25;;;;;;;29.25;15.98;;;;;;;;;;5057662;28;20041;-70
2023/03/09 07:13:51;;;;;;;27.90;14.98;;;;;;;;;;5026507;28;20492;-70
2023/03/09 07:16:17;;;;;;;30.23;16.15;;;;;;;;;;5014428;28;20448;-70
2023/03/09 07:18:43;;;;;;;30.30;17.33;;;;;;;;;;5025884;28;20045;-73
2023/03/09 07:21:09;;;;;;;28.85;15.00;;;;;;;;;;5036991;28;20096;-70
2023/03/09 07:23:36;;;;;;;26.65;14.32;;;;;;;;;;5041972;28;20682;-68
2023/03/09 07:26:03;;;;;;;29.35;14.43;;;;;;;;;;5058320;28;20846;-70
2023/03/09 07:28:29;;;;;;;28.92;14.55;;;2.50;99.90;;;;;;5033543;28;20168;-71
2023/03/09 07:30:55;;;;;;;28.02;15.27;;;;;;;;;;5041889;28;20516;-70
2023/03/09 07:33:21;;;;;;;25.35;15.07;;;;;;;;;;5029008;28;20047;-71
2023/03/09 07:35:47;;;;;;;28.40;14.55;;;;;;;;;;5059478;28;20048;-71
2023/03/09 07:38:13;;;;;;;26.08;15.10;;;2.80;99.90;;;;;;5041406;28;20485;-71
2023/03/09 07:40:39;;;;;;;23.67;14.50;;;;;;;;;;5035748;28;20045;-71
2023/03/09 07:43:06;;;;;;;28.98;14.73;;;;;;;;;;5031092;28;20824;-71
2023/03/09 07:45:32;;;;;;;24.85;14.30;;;;;;;;;;5033196;28;20029;-70
2023/03/09 07:47:58;;;;;;;23.35;13.30;;;;;;;;;;5034407;28;20494;-70
2023/03/09 07:50:23;;;;;;;26.05;13.43;;;2.90;99.90;;;;;;5063710;28;20068;-70
2023/03/09 07:52:50;;;;;;;24.48;14.52;;;;;;;;;;5048942;28;20116;-70
2023/03/09 07:55:16;;;;;;;25.88;14.63;;;;;;;;;;5050050;28;20048;-71
2023/03/09 07:57:43;;;;;;;23.95;14.00;;;2.90;99.90;;;;;;5043015;28;20068;-70
2023/03/09 08:00:12;;;;;;;26.83;14.38;;;;;;;;;;5048736;28;20126;-70
2023/03/09 08:02:42;;;;;;;25.67;15.15;;;;;;;;;;5066711;28;20435;-72
2023/03/09 08:05:09;;;;;;;24.85;14.02;;;3.10;99.90;;;;;;5065994;28;20079;-72
2023/03/09 08:07:35;;;;;;;22.45;13.45;;;;;;;;;;5049816;28;20036;-71
2023/03/09 08:10:02;;;;;;;28.45;14.23;;;;;;;;;;5047489;28;20072;-72
2023/03/09 08:12:28;;;;;;;21.42;12.90;;;;;;;;;;5013741;28;20563;-72
2023/03/09 08:14:54;;;;;;;28.85;15.73;;;;;;;;;;5030123;28;20045;-72
2023/03/09 08:17:20;;;;;;;22.33;12.85;;;;;;;;;;5028438;28;20485;-72
2023/03/09 08:19:46;;;;;;;22.90;13.70;;;;;;;;;;5065923;28;20044;-72
2023/03/09 08:22:12;;;;;;;25.48;13.98;;;;;;;;;;5065664;28;20405;-73
2023/03/09 08:24:38;;;;;;;22.05;12.93;;;3.40;99.90;;;;;;5049891;28;20045;-72
2023/03/09 08:27:03;;;;;;;21.85;13.18;;;3.30;99.90;;;;;;5049503;28;20044;-71
2023/03/09 08:29:29;;;;;;;21.80;12.73;;;;;;;;;;5048584;28;20743;-72
2023/03/09 08:31:55;;;;;;;21.55;12.60;;;;;;;;;;5064589;28;20668;-72
2023/03/09 08:34:21;;;;;;;19.08;11.80;;;;;;;;;;5048908;28;20045;-72
2023/03/09 08:36:47;;;;;;;20.58;11.90;;;;;;;;;;5034908;28;20036;-72
2023/03/09 08:39:13;;;;;;;27.75;13.05;;;;;;;;;;5032451;28;20040;-71
2023/03/09 08:41:39;;;;;;;21.45;12.52;;;;;;;;;;5065560;28;20043;-72
2023/03/09 08:44:05;;;;;;;19.85;12.10;;;;;;;;;;5051840;28;20120;-72
2023/03/09 08:46:31;;;;;;;17.60;10.68;;;;;;;;;;5029591;28;20370;-72
2023/03/09 08:48:57;;;;;;;15.32;10.20;;;3.90;99.90;;;;;;5040490;28;20068;-71
2023/03/09 08:51:23;;;;;;;16.25;11.20;;;;;;;;;;5048262;28;20033;-72
2023/03/09 08:53:49;;;;;;;18.77;10.55;;;;;;;;;;5033383;28;20482;-72
2023/03/09 08:56:15;;;;;;;17.83;10.85;;;;;;;;;;5065223;28;20089;-72
2023/03/09 08:58:41;;;;;;;17.08;9.55;;;;;;;;;;5050818;28;20075;-72
2023/03/09 09:01:08;;;;;;;16.25;10.13;;;;;;;;;;5048719;28;20456;-71
2023/03/09 09:03:35;;;;;;;18.60;10.90;;;;;;;;;;5032801;28;20045;-72
2023/03/09 09:06:05;;;;;;;17.52;10.25;;;;;;;;;;5048856;28;20381;-73
2023/03/09 09:08:31;;;;;;;16.30;10.55;;;4.50;99.90;;;;;;5047032;28;20051;-72
2023/03/09 09:10:57;;;;;;;14.65;10.05;;;;;;;;;;5032644;28;20499;-72
2023/03/09 09:13:23;;;;;;;16.83;10.32;;;;;;;;;;5048600;28;20512;-72
2023/03/09 09:15:53;;;;;;;17.55;9.23;;;;;;;;;;5048781;28;20124;-72
2023/03/09 09:18:19;;;;;;;14.07;8.65;;;;;;;;;;5048668;28;20508;-72
2023/03/09 09:20:45;;;;;;;14.98;8.80;;;;;;;;;;5045813;28;20044;-73
2023/03/09 09:23:11;;;;;;;16.17;9.75;;;;;;;;;;5064246;28;20552;-74
2023/03/09 09:25:37;;;;;;;14.65;8.90;;;;;;;;;;5028833;28;20046;-72
2023/03/09 09:28:03;;;;;;;16.08;9.60;;;;;;;;;;5039880;28;20039;-72
2023/03/09 09:30:32;;;;;;;16.25;9.48;;;;;;;;;;5057831;28;20593;-72
2023/03/09 09:32:58;;;;;;;17.17;8.85;;;;;;;;;;5035748;28;20086;-73
2023/03/09 09:35:24;;;;;;;15.30;9.35;;;;;;;;;;5052201;28;20041;-73
2023/03/09 09:37:51;;;;;;;15.60;10.05;;;;;;;;;;5035760;28;20127;-72
2023/03/09 09:40:18;;;;;;;17.98;9.30;;;4.30;99.90;;;;;;5061243;28;20048;-72
2023/03/09 09:42:44;;;;;;;15.57;9.38;;;;;;;;;;5051995;28;20039;-72
2023/03/09 09:45:21;;;;;;;15.77;9.85;;;;;;;;;;5035112;28;20041;-73
2023/03/09 09:47:48;;;;;;;16.17;9.43;;;;;;;;;;5069108;28;20037;-73
2023/03/09 09:50:14;;;;;;;11.77;8.05;;;4.60;99.90;;;;;;5035125;28;20464;-73
2023/03/09 09:52:46;;;;;;;14.27;9.00;;;;;;;;;;5052073;28;20116;-73
2023/03/09 09:55:17;;;;;;;16.38;9.00;;;;;;;;;;5035612;28;20041;-73
2023/03/09 09:57:49;;;;;;;11.88;8.25;;;;;;;;;;5025170;28;20072;-73
2023/03/09 10:00:32;;;;;;;13.20;8.73;;;;;;;;;;5068501;28;20044;-73
2023/03/09 10:03:10;;;;;;;12.00;7.85;;;;;;;;;;5068623;28;20041;-73
2023/03/09 10:05:45;;;;;;;14.88;9.45;;;;;;;;;;5068655;28;20129;-73
2023/03/09 10:08:31;;;;;;;12.68;8.30;;;;;;;;;;5068563;28;20083;-73
2023/03/09 10:11:07;;;;;;;14.32;8.63;;;5.10;99.90;;;;;;5047993;28;20045;-71
2023/03/09 10:13:40;;;;;;;16.98;8.32;;;4.80;99.90;;;;;;5052437;28;20121;-73
2023/03/09 10:16:07;;;;;;;13.30;9.07;;;;;;;;;;5049217;28;20084;-73
2023/03/09 10:18:39;;;;;;;9.52;6.93;;;5.00;99.90;;;;;;5037105;28;20504;-73
2023/03/09 10:21:12;;;;;;;10.60;8.05;;;;;;;;;;5024455;28;20036;-73
2023/03/09 10:23:40;;;;;;;13.97;7.80;;;;;;;;;;5068425;28;20045;-74
2023/03/09 10:26:33;;;;;;;11.38;7.55;;;5.10;99.90;;;;;;5034844;28;20076;-73
2023/03/09 10:29:02;;;;;;;13.73;7.78;;;;;;;;;;5041522;28;20087;-73
2023/03/09 10:31:48;;;;;;;15.63;7.80;;;;;;;;;;5051815;28;20392;-73
2023/03/09 10:34:16;;;;;;;8.73;6.07;;;;;;;;;;5050210;28;20125;-73
2023/03/09 10:36:48;;;;;;;10.57;6.63;;;;;;;;;;5050908;28;20496;-73
2023/03/09 10:39:17;;;;;;;10.20;6.78;;;;;;;;;;5050412;28;20496;-73
2023/03/09 10:41:43;;;;;;;10.23;6.78;;;;;;;;;;5050632;28;20037;-73
2023/03/09 10:44:11;;;;;;;12.70;7.60;;;;;;;;;;5059850;28;20080;-74
2023/03/09 10:47:03;;;;;;;10.77;7.43;;;;;;;;;;5056594;28;20133;-73
2023/03/09 10:49:30;;;;;;;10.90;7.57;;;;;;;;;;5048549;28;20067;-73
2023/03/09 10:51:56;;;;;;;9.95;7.05;;;;;;;;;;5048170;28;20128;-73
2023/03/09 10:54:25;;;;;;;10.60;7.22;;;;;;;;;;5043823;28;20072;-73
2023/03/09 10:56:52;;;;;;;10.25;7.28;;;;;;;;;;5064208;28;20121;-73
2023/03/09 10:59:20;;;;;;;9.30;6.65;;;;;;;;;;5028038;28;20041;-74
2023/03/09 11:01:56;;;;;;;10.77;6.60;;;;;;;;;;5067396;28;20433;-73
2023/03/09 11:04:22;;;;;;;9.52;6.75;;;;;;;;;;5064345;28;20071;-73
2023/03/09 11:06:58;;;;;;;10.60;6.57;;;;;;;;;;5030968;28;20037;-73
2023/03/09 11:09:33;;;;;;;9.88;6.55;;;;;;;;;;5028702;28;20037;-72
2023/03/09 11:12:18;;;;;;;9.90;6.35;;;;;;;;;;5044297;28;20098;-72
2023/03/09 11:14:55;;;;;;;7.90;5.72;;;5.60;99.90;;;;;;5050695;28;20053;-72
2023/03/09 11:17:39;;;;;;;9.70;6.50;;;5.60;99.90;;;;;;5050107;28;20037;-72
2023/03/09 11:20:23;;;;;;;8.75;6.38;;;;;;;;;;5044913;28;20048;-72
2023/03/09 11:22:52;;;;;;;9.75;6.35;;;;;;;;;;5035956;28;20040;-73
2023/03/09 11:25:24;;;;;;;8.93;6.32;;;;;;;;;;5041446;28;20500;-72
2023/03/09 11:27:58;;;;;;;8.20;5.90;;;6.00;99.90;;;;;;5045031;28;20033;-72
2023/03/09 11:30:25;;;;;;;9.32;6.45;;;;;;;;;;5039426;28;20033;-72
2023/03/09 11:32:52;;;;;;;8.95;6.03;;;5.90;99.90;;;;;;5054943;28;20037;-72
2023/03/09 11:35:18;;;;;;;11.27;5.80;;;;;;;;;;5037476;28;20037;-72
2023/03/09 11:37:44;;;;;;;9.40;6.15;;;;;;;;;;5050041;28;20098;-72
2023/03/09 11:40:19;;;;;;;9.70;6.22;;;;;;;;;;5050389;28;20037;-71
2023/03/09 11:42:53;;;;;;;9.52;6.95;;;6.00;99.90;;;;;;5049215;28;20121;-70
2023/03/09 11:45:23;;;;;;;9.25;5.70;;;;;;;;;;5046574;28;20420;-70
2023/03/09 11:47:55;;;;;;;10.07;5.97;;;;;;;;;;5044739;28;20866;-71
2023/03/09 11:50:22;;;;;;;11.30;6.93;;;;;;;;;;5059999;28;20048;-71
2023/03/09 11:52:51;;;;;;;9.27;5.88;;;;;;;;;;5062890;28;20040;-71
2023/03/09 11:55:22;;;;;;;7.65;5.75;;;;;;;;;;5041925;28;20100;-71
2023/03/09 11:57:52;;;;;;;9.80;5.90;;;6.10;99.90;;;;;;5034951;28;20056;-72
2023/03/09 12:00:19;;;;;;;7.47;5.63;;;;;;;;;;5039098;28;20045;-72
2023/03/09 12:03:00;;;;;;;8.98;5.88;;;;;;;;;;5037572;28;20037;-72
2023/03/09 12:05:29;;;;;;;8.18;5.88;;;;;;;;;;5045635;28;20127;-71
2023/03/09 12:07:59;;;;;;;10.27;6.13;;;6.30;99.90;;;;;;5027244;28;20032;-71
2023/03/09 12:10:29;;;;;;;9.52;6.05;;;;;;;;;;5049283;28;20037;-71
2023/03/09 12:13:30;;;;;;;8.52;5.68;;;6.20;99.90;;;;;;5032053;28;20036;-71
2023/03/09 12:16:02;;;;;;;8.32;5.57;;;;;;;;;;5022042;28;20049;-72
2023/03/09 12:18:30;;;;;;;11.23;5.68;;;;;;;;;;5028840;28;20037;-72
2023/03/09 12:20:58;;;;;;;7.78;5.72;;;6.20;99.90;;;;;;5046936;28;20037;-72
2023/03/09 12:23:36;;;;;;;8.77;6.03;;;;;;;;;;5032587;28;20036;-72
2023/03/09 12:26:36;;;;;;;7.28;5.28;;;6.40;99.90;;;;;;5045993;28;20068;-71
2023/03/09 12:29:17;;;;;;;9.55;6.50;;;6.10;99.90;;;;;;5035403;28;20492;-71
2023/03/09 12:31:43;;;;;;;9.13;6.05;;;6.40;99.90;;;;;;5037893;28;20044;-71
2023/03/09 12:34:09;;;;;;;8.35;5.68;;;;;;;;;;5029342;28;20034;-71
2023/03/09 12:36:37;;;;;;;7.65;5.10;;;6.20;99.90;;;;;;5038347;28;20171;-71
2023/03/09 12:39:24;;;;;;;8.60;6.05;;;6.20;99.90;;;;;;5033190;28;20063;-71
2023/03/09 12:42:09;;;;;;;9.00;5.95;;;6.50;99.90;;;;;;5049505;28;20049;-71
2023/03/09 12:44:44;;;;;;;9.85;5.70;;;;;;;;;;5049092;28;20041;-71
2023/03/09 12:47:37;;;;;;;8.05;5.15;;;6.40;99.90;;;;;;5049247;28;20048;-72
2023/03/09 12:50:28;;;;;;;9.18;5.95;;;6.40;99.90;;;;;;5046958;28;20060;-71
2023/03/09 12:53:12;;;;;;;8.65;5.68;;;6.20;99.90;;;;;;5045924;28;20065;-72
2023/03/09 12:55:38;;;;;;;8.38;5.75;;;;;;;;;;5032776;28;20087;-71
2023/03/09 12:58:22;;;;;;;7.57;5.72;;;6.10;99.90;;;;;;5049457;28;20053;-71
2023/03/09 13:00:48;;;;;;;;;;;;;;;;;;5049473;28;20041;-72
2023/03/09 13:03:16;;;;;;;9.60;5.97;;;;;;;;;;5032358;28;20452;-72
2023/03/09 13:05:48;;;;;;;7.45;5.45;;;6.10;99.90;;;;;;5043626;28;20428;-72
2023/03/09 13:08:37;;;;;;;9.30;5.80;;;;;;;;;;5034976;28;20037;-72
2023/03/09 13:11:22;;;;;;;8.70;6.07;;;;;;;;;;5045487;28;20045;-70
2023/03/09 13:13:49;;;;;;;10.50;6.60;;;;;;;;;;5067897;28;20204;-72
2023/03/09 13:16:37;;;;;;;8.32;5.55;;;;;;;;;;5053269;28;20121;-71
2023/03/09 13:19:23;;;;;;;9.35;6.10;;;5.70;99.90;;;;;;5067394;28;20044;-72
2023/03/09 13:22:01;;;;;;;7.93;5.32;;;;;;;;;;5047787;28;20055;-71
2023/03/09 13:24:37;;;;;;;8.93;5.65;;;;;;;;;;5057596;28;20440;-73
2023/03/09 13:27:09;;;;;;;7.68;5.70;;;;;;;;;;5067510;28;20041;-73
2023/03/09 13:29:38;;;;;;;9.82;5.97;;;;;;;;;;5064989;28;20029;-73
2023/03/09 13:32:18;;;;;;;8.38;5.75;;;;;;;;;;5049586;28;20037;-72
2023/03/09 13:34:45;;;;;;;8.65;6.00;;;;;;;;;;5035968;28;20041;-72
2023/03/09 13:37:17;;;;;;;8.98;6.45;;;5.90;99.90;;;;;;5054197;28;20048;-72
2023/03/09 13:40:15;;;;;;;8.98;6.07;;;5.90;99.90;;;;;;5036101;28;20045;-72
2023/03/09 13:42:44;;;;;;;9.88;6.85;;;;;;;;;;5030418;28;20323;-72
2023/03/09 13:45:24;;;;;;;11.10;6.90;;;;;;;;;;5052786;28;20399;-72
2023/03/09 13:47:57;;;;;;;10.82;7.57;;;;;;;;;;5052830;28;20040;-74
2023/03/09 13:50:27;;;;;;;10.23;6.60;;;6.00;99.90;;;;;;5052823;28;20171;-72
2023/03/09 13:52:59;;;;;;;10.35;6.72;;;5.90;99.90;;;;;;5035449;28;20037;-72
2023/03/09 13:55:27;;;;;;;13.35;7.78;;;;;;;;;;5035831;28;20049;-72
2023/03/09 13:57:53;;;;;;;9.90;6.65;;;;;;;;;;5052741;28;20056;-73
2023/03/09 14:00:25;;;;;;;11.82;7.65;;;;;;;;;;5069425;28;20037;-72
2023/03/09 14:02:53;;;;;;;9.45;6.63;;;;;;;;;;5052235;28;20512;-73
2023/03/09 14:05:21;;;;;;;9.55;7.07;;;6.00;99.90;;;;;;5035668;28;20045;-73
2023/03/09 14:07:54;;;;;;;11.23;7.50;;;;;;;;;;5035711;28;20051;-72
2023/03/09 14:10:34;;;;;;;;;;;5.80;99.90;;;;;;5052828;28;20044;-72